Time;durP1;ratioP1;P1;durP2;ratioP2;P2;SDS_P1;SDS_P2;PMS_P1;PMS_P2;Temp;Humidity;BMP_temperature;BMP_pressure;BME280_temperature;BME280_humidity;BME280_pressure;Samples;Min_cycle;Max_cycle;Signal;HPM_P1;HPM_P2
2023/03/31 00:01:45;;;;;;;4.47;2.50;;;13.70;47.40;;;;;;20765;6705;309277;-81
2023/03/31 00:04:22;;;;;;;4.77;2.03;;;13.70;47.40;;;;;;20914;6706;122509;-77
2023/03/31 00:07:00;;;;;;;4.07;2.40;;;13.90;47.00;;;;;;20760;6706;304698;-77
2023/03/31 00:09:36;;;;;;;2.33;1.83;;;13.90;47.10;;;;;;21032;6691;116633;-78
2023/03/31 00:12:12;;;;;;;2.80;2.30;;;13.80;47.00;;;;;;20991;6705;116710;-77
2023/03/31 00:14:47;;;;;;;5.20;2.65;;;13.60;47.40;;;;;;20656;6705;310347;-77
2023/03/31 00:17:23;;;;;;;4.13;2.57;;;13.80;47.30;;;;;;20774;6708;305739;-78
2023/03/31 00:20:01;;;;;;;3.00;2.17;;;14.20;46.80;;;;;;21069;6682;116680;-80
2023/03/31 00:22:37;;;;;;;3.17;2.00;;;14.10;46.80;;;;;;21014;6690;116699;-78
2023/03/31 00:25:15;;;;;;;4.07;2.20;;;13.80;47.10;;;;;;20612;6712;307059;-77
2023/03/31 00:27:51;;;;;;;3.53;2.20;;;14.00;47.10;;;;;;20800;6698;304628;-78
2023/03/31 00:30:28;;;;;;;4.30;2.20;;;14.30;46.70;;;;;;21036;6690;117132;-78
2023/03/31 00:33:03;;;;;;;3.53;2.17;;;14.20;46.80;;;;;;20982;6705;122667;-78
2023/03/31 00:35:42;;;;;;;2.73;1.83;;;13.70;47.60;;;;;;20786;6716;117139;-78
2023/03/31 00:38:20;;;;;;;3.37;2.07;;;13.50;48.00;;;;;;21002;6701;116711;-78
2023/03/31 00:40:53;;;;;;;3.30;2.30;;;13.50;48.00;;;;;;20957;6711;116769;-78
2023/03/31 00:43:32;;;;;;;3.50;1.93;;;13.40;48.40;;;;;;20983;6705;116666;-79
2023/03/31 00:46:16;;;;;;;5.03;2.20;;;13.20;48.70;;;;;;21026;6693;116747;-78
2023/03/31 00:48:50;;;;;;;3.70;2.40;;;13.10;48.60;;;;;;20845;6678;278497;-78
2023/03/31 00:51:25;;;;;;;2.53;1.97;;;13.50;48.20;;;;;;21021;6694;117133;-77
2023/03/31 00:54:03;;;;;;;4.85;2.55;;;13.50;48.00;;;;;;20762;6697;276585;-78
2023/03/31 00:56:38;;;;;;;5.50;2.60;;;13.80;47.60;;;;;;20800;6690;277238;-79
2023/03/31 00:59:13;;;;;;;4.50;2.40;;;14.10;46.90;;;;;;20827;6690;275853;-77
2023/03/31 01:01:49;;;;;;;3.70;2.33;;;14.40;46.00;;;;;;20955;6712;116699;-77
2023/03/31 01:04:27;;;;;;;3.50;2.10;;;14.30;46.30;;;;;;20901;6712;116753;-77
2023/03/31 01:07:01;;;;;;;3.83;2.30;;;14.10;46.60;;;;;;20750;6711;276133;-77
2023/03/31 01:09:37;;;;;;;5.67;2.00;;;14.10;46.60;;;;;;21025;6696;116677;-78
2023/03/31 01:12:12;;;;;;;2.97;2.00;;;14.10;46.90;;;;;;20997;6702;117088;-77
2023/03/31 01:14:47;;;;;;;2.73;2.00;;;13.90;47.30;;;;;;20899;6687;117294;-77
2023/03/31 01:17:23;;;;;;;5.30;2.47;;;13.60;47.70;;;;;;21031;6686;117116;-78
2023/03/31 01:20:00;;;;;;;4.70;2.50;;;13.50;48.10;;;;;;20714;6720;297740;-78
2023/03/31 01:22:58;;;;;;;3.80;2.27;;;13.70;48.00;;;;;;20751;6706;303953;-78
2023/03/31 01:26:01;;;;;;;2.73;1.90;;;14.10;47.70;;;;;;20806;6709;117251;-78
2023/03/31 01:28:39;;;;;;;3.63;2.30;;;14.00;47.60;;;;;;20724;6716;302625;-77
2023/03/31 01:31:35;;;;;;;4.80;2.10;;;14.20;47.10;;;;;;21006;6697;117700;-78
2023/03/31 01:34:17;;;;;;;3.95;2.30;;;14.00;47.20;;;;;;20719;6705;335841;-77
2023/03/31 01:37:29;;;;;;;5.60;2.60;;;14.20;47.00;;;;;;20739;6704;275323;-78
2023/03/31 01:40:24;;;;;;;5.03;2.63;;;14.40;46.50;;;;;;20700;6729;305349;-78
2023/03/31 01:43:26;;;;;;;3.27;1.93;;;14.60;45.90;;;;;;21020;6690;117084;-78
2023/03/31 01:46:12;;;;;;;4.47;2.07;;;14.40;46.30;;;;;;20928;6725;121217;-78
2023/03/31 01:49:04;;;;;;;3.03;1.93;;;13.90;47.00;;;;;;20933;6718;126658;-78
2023/03/31 01:52:00;;;;;;;3.93;2.60;;;13.70;47.80;;;;;;20803;6697;305282;-76
2023/03/31 01:54:52;;;;;;;5.47;2.63;;;13.80;47.70;;;;;;20919;6697;117290;-78
2023/03/31 01:57:33;;;;;;;3.10;1.80;;;13.80;47.80;;;;;;20990;6706;116854;-78
2023/03/31 02:00:12;;;;;;;3.40;2.13;;;13.40;48.80;;;;;;20954;6705;119731;-79
2023/03/31 02:02:52;;;;;;;3.97;2.73;;;13.50;48.50;;;;;;20782;6691;277113;-78
2023/03/31 02:05:28;;;;;;;3.43;2.43;;;13.50;48.50;;;;;;20795;6706;117125;-77
2023/03/31 02:08:09;;;;;;;3.67;2.78;;;13.60;48.70;;;;;;20716;6721;306425;-77
2023/03/31 02:10:45;;;;;;;4.63;2.77;;;13.70;49.10;;;;;;20957;6709;122937;-78
2023/03/31 02:13:21;;;;;;;5.05;3.20;;;13.70;49.00;;;;;;20793;6697;286858;-78
2023/03/31 02:15:56;;;;;;;5.97;2.27;;;13.80;49.10;;;;;;20974;6711;116871;-77
2023/03/31 02:18:32;;;;;;;4.00;2.80;;;13.80;49.10;;;;;;21015;6691;117303;-78
2023/03/31 02:21:07;;;;;;;4.00;2.67;;;13.50;49.40;;;;;;20981;6706;120805;-79
2023/03/31 02:23:44;;;;;;;4.97;3.00;;;13.40;50.80;;;;;;20701;6721;310008;-78
2023/03/31 02:26:19;;;;;;;5.10;3.07;;;13.40;50.80;;;;;;20814;6691;304686;-78
2023/03/31 02:28:55;;;;;;;5.72;2.83;;;13.80;50.70;;;;;;20756;6705;303629;-78
2023/03/31 02:31:57;;;;;;;6.93;2.97;;;14.00;50.50;;;;;;20976;6709;117565;-78
2023/03/31 02:34:32;;;;;;;4.22;3.10;;;13.80;50.30;;;;;;20060;6822;310582;-78
2023/03/31 02:37:08;;;;;;;7.00;2.93;;;13.80;51.00;;;;;;21025;6693;116888;-80
2023/03/31 02:39:43;;;;;;;5.37;3.00;;;13.70;51.00;;;;;;20970;6709;117211;-78
2023/03/31 02:42:19;;;;;;;6.10;3.37;;;13.40;51.50;;;;;;20733;6720;313815;-78
2023/03/31 02:44:54;;;;;;;4.67;2.93;;;13.50;52.20;;;;;;20586;6725;278473;-77
2023/03/31 02:47:30;;;;;;;6.37;2.92;;;13.70;51.30;;;;;;20726;6720;332929;-77
2023/03/31 02:50:06;;;;;;;6.73;3.30;;;14.10;51.60;;;;;;20711;6725;309731;-77
2023/03/31 02:52:55;;;;;;;3.00;2.63;;;14.00;51.00;;;;;;20968;6705;116853;-77
2023/03/31 02:55:29;;;;;;;4.30;2.50;;;14.00;50.80;;;;;;20820;6705;117023;-78
2023/03/31 02:58:13;;;;;;;6.55;3.00;;;13.70;51.20;;;;;;20775;6705;279242;-77
2023/03/31 03:01:09;;;;;;;5.43;3.03;;;13.70;51.50;;;;;;20904;6727;116917;-77
2023/03/31 03:03:58;;;;;;;4.00;2.67;;;13.50;51.40;;;;;;20918;6720;117429;-77
2023/03/31 03:06:52;;;;;;;5.83;3.03;;;13.30;51.80;;;;;;20787;6690;279550;-78
2023/03/31 03:09:31;;;;;;;9.40;6.73;;;13.40;52.40;;;;;;20773;6709;280361;-77
2023/03/31 03:12:07;;;;;;;5.17;3.70;;;13.70;51.80;;;;;;20736;6720;305197;-77
2023/03/31 03:14:51;;;;;;;6.13;3.00;;;13.80;51.50;;;;;;20842;6706;117579;-77
2023/03/31 03:17:41;;;;;;;6.53;3.40;;;13.80;52.10;;;;;;20781;6705;304391;-77
2023/03/31 03:20:15;;;;;;;3.50;3.10;;;13.80;51.70;;;;;;20711;6724;306140;-78
2023/03/31 03:22:49;;;;;;;5.83;3.50;;;14.00;51.40;;;;;;20760;6705;302385;-78
2023/03/31 03:25:26;;;;;;;6.43;3.20;;;13.80;51.50;;;;;;20830;6710;120303;-77
2023/03/31 03:28:01;;;;;;;6.32;3.40;;;13.80;50.90;;;;;;20736;6720;298726;-78
2023/03/31 03:30:38;;;;;;;6.23;3.50;;;13.60;51.70;;;;;;20974;6705;116919;-78
2023/03/31 03:33:15;;;;;;;4.30;3.17;;;13.50;51.60;;;;;;20995;6705;117374;-78
2023/03/31 03:35:49;;;;;;;6.60;3.73;;;13.20;52.10;;;;;;20806;6762;117438;-77
2023/03/31 03:38:24;;;;;;;7.00;3.40;;;12.90;52.50;;;;;;21031;6691;116605;-78
2023/03/31 03:41:00;;;;;;;7.00;3.87;;;12.70;52.90;;;;;;21016;6690;117059;-78
2023/03/31 03:43:36;;;;;;;3.57;3.10;;;12.40;53.40;;;;;;21024;6687;116695;-78
2023/03/31 03:46:12;;;;;;;4.37;3.13;;;12.40;53.40;;;;;;21042;6687;116718;-77
2023/03/31 03:48:47;;;;;;;6.40;3.40;;;12.30;53.50;;;;;;21022;6687;126345;-80
2023/03/31 03:51:23;;;;;;;6.20;4.10;;;12.20;53.70;;;;;;20743;6705;339113;-78
2023/03/31 03:53:58;;;;;;;8.40;4.00;;;12.40;54.10;;;;;;20939;6708;122308;-77
2023/03/31 03:56:34;;;;;;;5.60;3.92;;;12.50;53.70;;;;;;20758;6705;306397;-78
2023/03/31 03:59:10;;;;;;;7.20;3.60;;;12.70;53.60;;;;;;20710;6724;309586;-78
2023/03/31 04:01:45;;;;;;;5.90;3.73;;;13.00;53.00;;;;;;20767;6705;304548;-78
2023/03/31 04:04:21;;;;;;;3.53;3.10;;;13.10;52.40;;;;;;20856;6724;117337;-77
2023/03/31 04:06:57;;;;;;;4.47;3.23;;;13.00;52.30;;;;;;20968;6705;123453;-78
2023/03/31 04:09:34;;;;;;;5.67;3.20;;;12.70;52.80;;;;;;21047;6686;116492;-78
2023/03/31 04:12:09;;;;;;;5.70;3.30;;;12.40;53.20;;;;;;21035;6690;116580;-77
2023/03/31 04:14:46;;;;;;;6.97;4.03;;;12.30;54.20;;;;;;20672;6694;285253;-78
2023/03/31 04:17:31;;;;;;;5.30;4.10;;;12.30;54.20;;;;;;20827;6690;288724;-77
2023/03/31 04:20:00;;;;;;;5.17;3.63;;;12.70;53.60;;;;;;21031;6691;117129;-77
2023/03/31 04:22:34;;;;;;;4.60;3.70;;;12.60;53.30;;;;;;20903;6690;68109;-73
2023/03/31 04:25:09;;;;;;;5.53;3.70;;;12.40;53.60;;;;;;20644;6705;331852;-78
2023/03/31 04:27:49;;;;;;;4.60;3.70;;;12.60;53.60;;;;;;21048;6691;70287;-76
2023/03/31 04:30:22;;;;;;;6.10;4.00;;;12.60;53.40;;;;;;20829;6691;308392;-75
2023/03/31 04:32:58;;;;;;;4.57;3.53;;;12.70;53.40;;;;;;20955;6709;118854;-77
2023/03/31 04:35:48;;;;;;;4.82;3.70;;;12.70;53.20;;;;;;20674;6691;306789;-77
2023/03/31 04:38:22;;;;;;;6.15;3.92;;;12.90;52.90;;;;;;20812;6691;304779;-73
2023/03/31 04:40:58;;;;;;;4.40;3.17;;;13.20;52.40;;;;;;20973;6705;118030;-75
2023/03/31 04:43:33;;;;;;;6.07;4.50;;;13.10;52.30;;;;;;20733;6712;309032;-76
2023/03/31 04:46:09;;;;;;;5.63;3.83;;;13.20;52.20;;;;;;21000;6696;116730;-75
2023/03/31 04:48:46;;;;;;;4.53;4.07;;;13.10;52.20;;;;;;20732;6709;334597;-74
2023/03/31 04:51:21;;;;;;;4.40;3.70;;;13.20;51.90;;;;;;20986;6706;121080;-74
2023/03/31 04:53:57;;;;;;;5.95;4.10;;;13.10;51.80;;;;;;20716;6706;306821;-73
2023/03/31 04:56:33;;;;;;;6.53;3.77;;;13.20;52.00;;;;;;20985;6694;116681;-76
2023/03/31 04:59:08;;;;;;;5.60;3.83;;;13.10;52.00;;;;;;20831;6691;303994;-82
2023/03/31 05:01:44;;;;;;;5.43;4.03;;;13.20;52.00;;;;;;20861;6676;303826;-80
2023/03/31 05:04:20;;;;;;;6.17;4.10;;;13.50;51.70;;;;;;20889;6690;116550;-76
2023/03/31 05:06:56;;;;;;;5.62;4.15;;;13.40;51.90;;;;;;20737;6705;299284;-79
2023/03/31 05:09:35;;;;;;;5.70;4.13;;;13.40;51.90;;;;;;20979;6705;116894;-77
2023/03/31 05:12:09;;;;;;;5.87;4.05;;;13.40;52.70;;;;;;20782;6705;305038;-83
2023/03/31 05:14:48;;;;;;;6.37;4.30;;;13.40;52.70;;;;;;20901;6690;117268;-78
2023/03/31 05:17:21;;;;;;;4.50;3.87;;;13.30;52.60;;;;;;21001;6693;116621;-74
2023/03/31 05:19:56;;;;;;;4.30;3.57;;;13.00;53.00;;;;;;20975;6710;117101;-74
2023/03/31 05:22:31;;;;;;;7.10;4.10;;;12.80;53.40;;;;;;20883;6720;126653;-72
2023/03/31 05:25:07;;;;;;;8.02;4.72;;;12.60;53.90;;;;;;20661;6697;333933;-73
2023/03/31 05:27:49;;;;;;;5.03;4.27;;;12.70;55.50;;;;;;21032;6691;116678;-74
2023/03/31 05:30:21;;;;;;;5.60;4.20;;;12.70;55.10;;;;;;20939;6720;116744;-75
2023/03/31 05:32:56;;;;;;;8.33;5.00;;;12.50;55.20;;;;;;20778;6697;309348;-75
2023/03/31 05:35:33;;;;;;;6.35;4.75;;;13.00;56.20;;;;;;20580;6716;308037;-74
2023/03/31 05:38:08;;;;;;;8.37;6.77;;;13.00;56.20;;;;;;21003;6697;120517;-74
2023/03/31 05:40:44;;;;;;;8.57;5.43;;;12.90;55.80;;;;;;20769;6697;304791;-83
2023/03/31 05:43:19;;;;;;;6.43;5.20;;;13.00;56.20;;;;;;21048;6682;116750;-72
2023/03/31 05:45:55;;;;;;;7.47;5.50;;;12.90;55.90;;;;;;20782;6701;274762;-73
2023/03/31 05:48:30;;;;;;;8.03;5.80;;;12.90;56.80;;;;;;20766;6701;304447;-74
2023/03/31 05:51:06;;;;;;;8.67;4.93;;;13.20;56.80;;;;;;21007;6701;117061;-73
2023/03/31 05:53:44;;;;;;;5.23;4.73;;;13.00;56.40;;;;;;20965;6705;116793;-74
2023/03/31 05:56:18;;;;;;;5.47;4.50;;;12.40;57.40;;;;;;21021;6697;117066;-72
2023/03/31 05:58:54;;;;;;;8.10;5.50;;;12.40;57.40;;;;;;20758;6706;304327;-73
2023/03/31 06:01:29;;;;;;;6.33;5.03;;;12.60;58.50;;;;;;20976;6709;120683;-72
2023/03/31 06:04:05;;;;;;;5.57;4.80;;;12.50;58.00;;;;;;20922;6706;117288;-72
2023/03/31 06:06:43;;;;;;;7.60;6.18;;;12.50;59.40;;;;;;20693;6727;305084;-73
2023/03/31 06:09:20;;;;;;;9.17;5.57;;;12.50;59.30;;;;;;20986;6706;116688;-72
2023/03/31 06:15:30;;;;;;;8.57;6.07;;;12.70;59.30;;;;;;20802;6720;116978;-73
2023/03/31 06:18:09;;;;;;;10.23;6.57;;;12.50;58.90;;;;;;20782;6703;334019;-73
2023/03/31 06:20:42;;;;;;;12.40;8.50;;;13.00;59.90;;;;;;20797;6690;303669;-73
2023/03/31 06:23:17;;;;;;;9.65;8.00;;;12.90;59.30;;;;;;20833;6690;303530;-73
2023/03/31 06:25:53;;;;;;;7.77;6.83;;;13.20;59.10;;;;;;20645;6747;306948;-76
2023/03/31 06:28:29;;;;;;;7.30;6.50;;;13.40;58.60;;;;;;20743;6714;304842;-77
2023/03/31 06:31:08;;;;;;;8.53;5.57;;;13.30;58.30;;;;;;20989;6705;116771;-71
2023/03/31 06:33:44;;;;;;;8.48;6.40;;;13.30;58.30;;;;;;20760;6701;305599;-72
2023/03/31 06:36:21;;;;;;;7.50;5.70;;;13.10;58.60;;;;;;21048;6687;117091;-73
2023/03/31 06:38:57;;;;;;;11.33;5.80;;;13.10;58.50;;;;;;21033;6686;116773;-73
2023/03/31 06:41:33;;;;;;;8.17;6.30;;;12.80;59.20;;;;;;21034;6691;116793;-76
2023/03/31 06:44:10;;;;;;;9.13;6.03;;;12.50;59.70;;;;;;20907;6709;116806;-74
2023/03/31 06:46:45;;;;;;;10.90;6.60;;;12.20;60.10;;;;;;20979;6706;117196;-75
2023/03/31 06:49:22;;;;;;;12.45;8.30;;;12.00;60.50;;;;;;20732;6721;279434;-75
2023/03/31 06:52:00;;;;;;;13.07;8.73;;;12.20;61.50;;;;;;20815;6691;304921;-74
2023/03/31 06:54:35;;;;;;;10.60;7.50;;;12.80;60.90;;;;;;20666;6705;282263;-76
2023/03/31 06:57:11;;;;;;;8.90;6.40;;;12.70;60.70;;;;;;20978;6711;117258;-73
2023/03/31 06:59:47;;;;;;;9.70;6.95;;;12.60;61.60;;;;;;20738;6718;303833;-73
2023/03/31 07:02:24;;;;;;;7.33;4.90;;;12.60;61.10;;;;;;20933;6722;117387;-74
2023/03/31 07:05:00;;;;;;;6.27;4.80;;;12.40;61.00;;;;;;20830;6705;117165;-75
2023/03/31 07:07:35;;;;;;;6.72;5.30;;;12.10;61.50;;;;;;20703;6724;309671;-75
2023/03/31 07:10:11;;;;;;;3.50;3.27;;;12.20;62.10;;;;;;20998;6703;117045;-75
2023/03/31 07:12:46;;;;;;;4.63;4.00;;;12.10;61.60;;;;;;20906;6721;120347;-75
2023/03/31 07:15:22;;;;;;;6.12;5.00;;;11.90;62.30;;;;;;20617;6698;294380;-74
2023/03/31 07:18:03;;;;;;;4.60;3.27;;;12.00;63.00;;;;;;20951;6721;115883;-74
2023/03/31 07:20:33;;;;;;;4.93;3.70;;;12.00;62.30;;;;;;20965;6708;116935;-75
2023/03/31 07:23:09;;;;;;;3.50;2.30;;;11.80;62.60;;;;;;21033;6691;117254;-75
2023/03/31 07:25:44;;;;;;;4.40;3.47;;;11.70;62.90;;;;;;20838;6697;117361;-75
2023/03/31 07:28:20;;;;;;;3.97;3.67;;;11.50;63.30;;;;;;21072;6682;116959;-75
2023/03/31 07:30:55;;;;;;;4.17;3.40;;;11.40;63.50;;;;;;20841;6682;274592;-74
2023/03/31 07:33:35;;;;;;;4.47;3.63;;;11.80;63.10;;;;;;21019;6697;120220;-74
2023/03/31 07:36:11;;;;;;;5.37;4.70;;;11.80;62.50;;;;;;20781;6701;304739;-75
2023/03/31 07:38:50;;;;;;;6.18;4.93;;;12.10;63.20;;;;;;20803;6690;307373;-74
2023/03/31 07:41:22;;;;;;;4.53;3.95;;;12.50;63.00;;;;;;20860;6676;299087;-74
2023/03/31 07:43:58;;;;;;;2.93;2.73;;;12.90;62.30;;;;;;21032;6676;116599;-74
2023/03/31 07:46:33;;;;;;;2.27;2.13;;;12.80;62.00;;;;;;21051;6678;117101;-75
2023/03/31 07:49:09;;;;;;;2.13;1.93;;;12.70;62.50;;;;;;21022;6696;116794;-72
2023/03/31 07:51:44;;;;;;;2.57;2.37;;;12.60;63.10;;;;;;20771;6710;277553;-74
2023/03/31 07:54:20;;;;;;;2.30;2.20;;;12.70;62.20;;;;;;20735;6697;277240;-75
2023/03/31 07:56:56;;;;;;;2.53;2.20;;;13.10;61.20;;;;;;20749;6709;276175;-74
2023/03/31 07:59:31;;;;;;;2.37;2.17;;;13.50;61.70;;;;;;20719;6724;288269;-75
2023/03/31 08:02:16;;;;;;;2.67;1.90;;;14.00;61.30;;;;;;20997;6705;117173;-74
2023/03/31 08:04:42;;;;;;;2.10;1.83;;;14.10;61.10;;;;;;20930;6690;126836;-75
2023/03/31 08:07:18;;;;;;;1.70;1.60;;;14.00;61.20;;;;;;20990;6705;116879;-74
2023/03/31 08:09:53;;;;;;;2.77;2.57;;;13.80;61.20;;;;;;20993;6706;117680;-74
2023/03/31 08:12:30;;;;;;;2.40;2.30;;;13.80;62.70;;;;;;20956;6711;117477;-75
2023/03/31 08:15:07;;;;;;;1.80;1.70;;;13.80;62.60;;;;;;20614;6721;307074;-75
2023/03/31 08:17:43;;;;;;;1.60;1.50;;;14.20;62.50;;;;;;21001;6701;117608;-74
2023/03/31 08:20:18;;;;;;;1.50;1.40;;;14.50;61.50;;;;;;20835;6686;318647;-74
2023/03/31 08:22:55;;;;;;;1.53;1.10;;;14.80;58.20;;;;;;20986;6701;116748;-75
2023/03/31 08:25:31;;;;;;;1.10;1.10;;;15.00;58.20;;;;;;20823;6703;117179;-74
2023/03/31 08:28:09;;;;;;;1.50;1.40;;;14.90;58.10;;;;;;20991;6705;116717;-75
2023/03/31 08:30:42;;;;;;;1.73;1.63;;;15.00;58.50;;;;;;20974;6705;117646;-75
2023/03/31 08:33:18;;;;;;;1.90;1.80;;;15.00;58.70;;;;;;20987;6706;116756;-75
2023/03/31 08:35:53;;;;;;;1.30;1.20;;;15.00;57.70;;;;;;21038;6691;117760;-75
2023/03/31 08:38:29;;;;;;;1.35;1.25;;;15.00;57.70;;;;;;20759;6710;334412;-75
2023/03/31 08:41:05;;;;;;;0.80;0.80;;;15.30;55.90;;;;;;20762;6710;276155;-73
2023/03/31 08:43:40;;;;;;;0.60;0.60;;;15.90;53.80;;;;;;20976;6704;116737;-73
2023/03/31 08:46:17;;;;;;;1.45;0.90;;;16.00;53.80;;;;;;20825;6690;278724;-75
2023/03/31 08:48:55;;;;;;;1.10;0.70;;;16.30;52.80;;;;;;20851;6690;288638;-74
2023/03/31 08:51:31;;;;;;;0.70;0.70;;;16.60;51.30;;;;;;20920;6705;117202;-74
2023/03/31 08:54:07;;;;;;;1.08;0.80;;;16.60;51.80;;;;;;20720;6705;304446;-73
2023/03/31 08:56:42;;;;;;;1.40;1.00;;;16.80;51.60;;;;;;20806;6691;307985;-76
2023/03/31 08:59:28;;;;;;;1.17;1.08;;;17.40;49.70;;;;;;20829;6690;334523;-76
2023/03/31 09:02:24;;;;;;;0.90;0.90;;;17.40;49.70;;;;;;21048;6690;120553;-75
2023/03/31 09:05:06;;;;;;;0.90;0.90;;;17.40;50.30;;;;;;20919;6690;117212;-75
2023/03/31 09:08:16;;;;;;;0.70;0.70;;;17.10;51.20;;;;;;21039;6690;116791;-75
2023/03/31 09:10:55;;;;;;;1.00;0.77;;;17.10;51.20;;;;;;21025;6690;116775;-75
2023/03/31 09:13:58;;;;;;;1.25;0.90;;;16.90;50.90;;;;;;20823;6690;303787;-77
2023/03/31 09:16:53;;;;;;;0.93;0.83;;;17.00;48.30;;;;;;21018;6691;116790;-75
2023/03/31 09:19:32;;;;;;;0.93;0.90;;;17.00;49.40;;;;;;21022;6691;119612;-75
2023/03/31 09:22:12;;;;;;;1.23;0.90;;;16.90;50.50;;;;;;20817;6691;333615;-74
2023/03/31 09:25:04;;;;;;;0.90;0.90;;;17.10;47.70;;;;;;20853;6697;118258;-74
2023/03/31 09:27:41;;;;;;;0.90;0.90;;;17.10;48.00;;;;;;20779;6705;308607;-74
2023/03/31 09:30:21;;;;;;;1.10;1.00;;;17.20;46.20;;;;;;20772;6706;299185;-74
2023/03/31 09:33:10;;;;;;;1.20;1.10;;;17.50;45.00;;;;;;20771;6705;305402;-73
2023/03/31 09:35:46;;;;;;;0.87;0.70;;;17.70;44.80;;;;;;20621;6821;117091;-74
2023/03/31 09:38:21;;;;;;;2.35;1.20;;;17.80;44.90;;;;;;20713;6725;334933;-73
2023/03/31 09:40:57;;;;;;;1.17;0.97;;;17.80;43.40;;;;;;20970;6705;117675;-75
2023/03/31 09:43:37;;;;;;;1.90;1.12;;;17.80;44.60;;;;;;20700;6727;297510;-73
2023/03/31 09:46:14;;;;;;;1.60;1.20;;;18.00;43.80;;;;;;20767;6711;274969;-74
2023/03/31 09:48:57;;;;;;;2.03;1.10;;;18.40;43.20;;;;;;20812;6767;121744;-74
2023/03/31 09:51:32;;;;;;;1.97;1.17;;;18.40;44.00;;;;;;21029;6709;116487;-74
2023/03/31 09:54:21;;;;;;;2.40;1.40;;;18.20;44.30;;;;;;20938;6709;117121;-74
2023/03/31 09:56:57;;;;;;;2.57;1.20;;;18.00;45.30;;;;;;20988;6705;118453;-74
2023/03/31 09:59:33;;;;;;;3.20;1.40;;;18.40;44.60;;;;;;20771;6705;275609;-74
2023/03/31 10:02:33;;;;;;;1.90;1.10;;;18.30;44.10;;;;;;20784;6705;296003;-75
2023/03/31 10:05:08;;;;;;;1.43;0.87;;;18.80;42.70;;;;;;20854;6706;117319;-76
2023/03/31 10:07:43;;;;;;;2.55;1.45;;;19.10;44.20;;;;;;20833;6686;284373;-75
2023/03/31 10:10:25;;;;;;;2.00;1.30;;;19.20;41.60;;;;;;20775;6705;275255;-74
2023/03/31 10:12:58;;;;;;;2.07;1.50;;;19.50;41.90;;;;;;20970;6705;117188;-76
2023/03/31 10:15:33;;;;;;;2.57;1.50;;;19.60;43.20;;;;;;20834;6703;117058;-77
2023/03/31 10:18:13;;;;;;;2.27;1.27;;;19.60;43.70;;;;;;21035;6688;116702;-77
2023/03/31 10:20:49;;;;;;;3.73;1.87;;;19.40;42.00;;;;;;20972;6706;118106;-74
2023/03/31 10:23:27;;;;;;;3.23;1.20;;;19.20;42.20;;;;;;20936;6718;117611;-74
2023/03/31 10:26:03;;;;;;;2.13;1.63;;;19.00;42.70;;;;;;20805;6697;277856;-76
2023/03/31 10:28:39;;;;;;;2.75;2.00;;;19.20;39.70;;;;;;20803;6694;304561;-75
2023/03/31 10:31:15;;;;;;;4.93;1.60;;;19.50;39.30;;;;;;21043;6705;118128;-75
2023/03/31 10:33:51;;;;;;;3.00;1.70;;;19.70;38.50;;;;;;20796;6691;306477;-76
2023/03/31 10:36:27;;;;;;;2.63;1.60;;;19.70;38.40;;;;;;20988;6721;118405;-76
2023/03/31 10:39:06;;;;;;;2.17;1.43;;;19.70;39.70;;;;;;20921;6720;116881;-78
2023/03/31 10:41:41;;;;;;;4.37;1.40;;;19.50;40.10;;;;;;20927;6726;119440;-76
2023/03/31 10:44:37;;;;;;;3.65;1.80;;;19.30;40.80;;;;;;20705;6705;276951;-74
2023/03/31 10:47:12;;;;;;;2.70;1.40;;;19.40;38.50;;;;;;20813;6691;312225;-76
2023/03/31 10:49:48;;;;;;;3.50;1.53;;;19.70;36.70;;;;;;21057;6687;116613;-74
2023/03/31 10:52:26;;;;;;;4.47;1.17;;;19.70;38.30;;;;;;20992;6691;121998;-75
2023/03/31 10:55:00;;;;;;;3.83;2.00;;;19.50;39.70;;;;;;20674;6686;311570;-75
2023/03/31 10:57:50;;;;;;;2.73;1.23;;;19.50;36.80;;;;;;21006;6701;117742;-74
2023/03/31 11:00:56;;;;;;;2.87;1.60;;;19.40;38.50;;;;;;20762;6711;288965;-77
2023/03/31 11:04:00;;;;;;;2.67;1.60;;;19.40;35.90;;;;;;21017;6690;116700;-76
2023/03/31 11:06:37;;;;;;;3.80;1.90;;;19.50;37.30;;;;;;20793;6690;305345;-75
2023/03/31 11:09:19;;;;;;;3.00;1.60;;;19.50;36.70;;;;;;20824;6690;275658;-77
2023/03/31 11:12:17;;;;;;;3.27;1.73;;;19.70;35.40;;;;;;21078;6676;116708;-75
2023/03/31 11:14:59;;;;;;;2.80;1.27;;;19.60;37.40;;;;;;20940;6676;117862;-75
2023/03/31 11:17:54;;;;;;;3.07;1.50;;;19.20;37.50;;;;;;21072;6676;116587;-76
2023/03/31 11:20:58;;;;;;;2.40;1.20;;;18.60;36.60;;;;;;20804;6690;304405;-78
2023/03/31 11:23:57;;;;;;;2.07;1.20;;;18.60;36.40;;;;;;21000;6747;116514;-80
2023/03/31 11:27:04;;;;;;;19.23;2.10;;;17.90;38.20;;;;;;21044;6676;116652;-78
2023/03/31 11:29:44;;;;;;;3.67;1.20;;;17.10;40.60;;;;;;21044;6687;116880;-75
2023/03/31 11:32:32;;;;;;;2.40;0.90;;;16.00;43.30;;;;;;21015;6697;117149;-75
2023/03/31 11:35:50;;;;;;;2.50;0.80;;;14.90;45.20;;;;;;20682;6693;309394;-75
2023/03/31 11:38:46;;;;;;;2.50;0.70;;;14.50;47.20;;;;;;21037;6688;116747;-77
2023/03/31 11:41:33;;;;;;;1.47;0.40;;;13.30;49.10;;;;;;20993;6703;117892;-82
2023/03/31 11:44:09;;;;;;;1.50;0.73;;;13.20;49.00;;;;;;20885;6721;116892;-76
2023/03/31 11:46:58;;;;;;;2.17;0.87;;;12.60;51.30;;;;;;20933;6716;118700;-76
2023/03/31 11:49:42;;;;;;;0.40;0.40;;;12.40;52.00;;;;;;20980;6708;117798;-79
2023/03/31 11:52:16;;;;;;;2.33;0.40;;;12.30;51.90;;;;;;20945;6717;119210;-74
2023/03/31 11:55:05;;;;;;;0.30;0.30;;;12.10;52.40;;;;;;20667;6697;339922;-75
2023/03/31 11:57:41;;;;;;;0.20;0.20;;;12.40;51.50;;;;;;21063;6682;116681;-74
2023/03/31 12:00:20;;;;;;;0.52;0.40;;;12.40;52.00;;;;;;20843;6682;274221;-75
2023/03/31 12:02:52;;;;;;;1.33;0.35;;;12.70;51.90;;;;;;20826;6683;274195;-76
2023/03/31 12:05:28;;;;;;;0.53;0.27;;;13.10;50.70;;;;;;20903;6682;120372;-73
2023/03/31 12:08:23;;;;;;;1.43;0.30;;;13.30;51.70;;;;;;21056;6682;117644;-73
2023/03/31 12:11:08;;;;;;;0.40;0.40;;;13.20;52.30;;;;;;20952;6712;117236;-74
2023/03/31 12:13:57;;;;;;;2.03;0.70;;;13.10;52.90;;;;;;20949;6712;116601;-74
2023/03/31 12:16:44;;;;;;;0.97;0.53;;;13.10;53.60;;;;;;20435;6758;118388;-74
2023/03/31 12:19:26;;;;;;;1.07;0.50;;;13.10;54.10;;;;;;21007;6705;117153;-75
2023/03/31 12:22:14;;;;;;;1.57;0.50;;;13.10;54.10;;;;;;20978;6705;116880;-75
2023/03/31 12:24:49;;;;;;;0.60;0.60;;;13.10;54.30;;;;;;20856;6709;117406;-74
2023/03/31 12:27:32;;;;;;;1.10;0.60;;;13.20;54.20;;;;;;20815;6690;276683;-76
2023/03/31 12:30:23;;;;;;;0.82;0.50;;;13.50;51.90;;;;;;20811;6690;289130;-75
2023/03/31 12:33:06;;;;;;;1.13;0.30;;;14.10;50.50;;;;;;21021;6690;116664;-75
2023/03/31 12:35:54;;;;;;;1.30;0.60;;;14.30;51.10;;;;;;20585;6720;306686;-76
2023/03/31 12:38:33;;;;;;;0.68;0.65;;;14.60;48.90;;;;;;20791;6691;308567;-76
2023/03/31 12:41:31;;;;;;;1.20;0.70;;;15.40;47.80;;;;;;20753;6712;289113;-75
2023/03/31 12:44:09;;;;;;;1.37;0.70;;;15.40;47.80;;;;;;19962;6817;118544;-75
2023/03/31 12:47:08;;;;;;;0.93;0.60;;;15.40;48.90;;;;;;20954;6705;117349;-77
2023/03/31 12:49:54;;;;;;;1.63;0.77;;;15.30;49.70;;;;;;20974;6692;116764;-76
2023/03/31 12:52:29;;;;;;;1.90;0.90;;;15.30;50.10;;;;;;20823;6688;276046;-75
2023/03/31 12:55:32;;;;;;;1.00;0.70;;;15.50;48.50;;;;;;20809;6718;117267;-81
2023/03/31 12:58:25;;;;;;;1.20;0.82;;;15.90;46.30;;;;;;20758;6712;304853;-74
2023/03/31 13:01:17;;;;;;;1.57;0.67;;;15.90;46.20;;;;;;21016;6691;117443;-75
2023/03/31 13:04:20;;;;;;;1.10;0.87;;;15.80;47.50;;;;;;20944;6711;116815;-74
2023/03/31 13:06:56;;;;;;;1.23;0.80;;;15.50;49.20;;;;;;20972;6706;118609;-77
2023/03/31 13:09:41;;;;;;;2.53;0.80;;;15.40;49.10;;;;;;20931;6730;117007;-77
2023/03/31 13:12:17;;;;;;;1.60;1.00;;;15.30;49.30;;;;;;20660;6725;308928;-77
2023/03/31 13:14:58;;;;;;;2.67;1.10;;;15.50;45.80;;;;;;20776;6727;120007;-77
2023/03/31 13:17:34;;;;;;;0.93;0.83;;;15.50;47.70;;;;;;20963;6705;116921;-79
2023/03/31 13:20:16;;;;;;;2.10;1.27;;;15.50;47.70;;;;;;20964;6711;120114;-77
2023/03/31 13:22:55;;;;;;;3.20;1.70;;;15.40;48.20;;;;;;20800;6691;292988;-77
2023/03/31 13:25:51;;;;;;;1.23;1.10;;;15.70;45.60;;;;;;20606;6710;337345;-78
2023/03/31 13:28:41;;;;;;;2.63;1.37;;;16.20;45.60;;;;;;20818;6690;308091;-78
2023/03/31 13:31:16;;;;;;;3.62;1.40;;;16.60;44.80;;;;;;20816;6690;334118;-78
2023/03/31 13:33:57;;;;;;;2.60;1.37;;;16.90;44.30;;;;;;20779;6690;307267;-77
2023/03/31 13:36:56;;;;;;;3.70;1.50;;;17.00;43.30;;;;;;21010;6690;117246;-77
2023/03/31 13:39:45;;;;;;;3.05;1.50;;;16.90;45.10;;;;;;20814;6690;306714;-78
2023/03/31 13:42:40;;;;;;;1.90;1.20;;;16.90;43.90;;;;;;21078;6676;116675;-78
2023/03/31 13:45:35;;;;;;;4.13;1.80;;;16.60;45.40;;;;;;20854;6697;117943;-79